Time;durP1;ratioP1;P1;durP2;ratioP2;P2;SDS_P1;SDS_P2;PMS_P1;PMS_P2;Temp;Humidity;BMP_temperature;BMP_pressure;BME280_temperature;BME280_humidity;BME280_pressure;Samples;Min_cycle;Max_cycle;Signal;HPM_P1;HPM_P2
2024/02/25 00:00:24;;;;;;;13.43;5.13;;;;;;;;;;5009494;28;20178;-86
2024/02/25 00:03:28;;;;;;;7.47;5.37;;;;;;;;;;4997507;28;20216;-86
2024/02/25 00:06:32;;;;;;;8.57;5.53;;;;;;;;;;4998327;28;20626;-84
2024/02/25 00:09:36;;;;;;;6.20;4.37;;;;;;;;;;5009134;28;20182;-84
2024/02/25 00:12:41;;;;;;;4.33;3.50;;;;;;;;;;4998926;28;20182;-84
2024/02/25 00:15:45;;;;;;;6.93;4.80;;;;;;;;;;4987643;28;20190;-85
2024/02/25 00:18:49;;;;;;;5.30;3.77;;;;;;;;;;4987185;28;20213;-86
2024/02/25 00:21:53;;;;;;;8.00;5.30;;;;;;;;;;4987421;28;20189;-85
2024/02/25 00:24:58;;;;;;;7.10;4.90;;;;;;;;;;5009324;28;20205;-84
2024/02/25 00:28:03;;;;;;;8.00;5.33;;;;;;;;;;5009763;28;20177;-85
2024/02/25 00:31:07;;;;;;;8.70;5.30;;;;;;;;;;4997524;28;20186;-85
2024/02/25 00:34:11;;;;;;;7.20;5.17;;;;;;;;;;4985586;28;20217;-84
2024/02/25 00:37:15;;;;;;;7.73;4.33;;;;;;;;;;4985786;28;20182;-86
2024/02/25 00:40:20;;;;;;;10.10;4.30;;;;;;;;;;4997517;28;20178;-84
2024/02/25 00:43:26;;;;;;;6.70;4.60;;;;;;;;;;5008778;28;20221;-84
2024/02/25 00:46:30;;;;;;;6.37;4.57;;;;;;;;;;5009966;28;20185;-85
2024/02/25 00:49:34;;;;;;;6.63;4.27;;;;;;;;;;5021182;28;20556;-85
2024/02/25 00:52:38;;;;;;;8.63;5.00;;;;;;;;;;4986213;28;20174;-85
2024/02/25 00:55:42;;;;;;;6.10;4.30;;;;;;;;;;5020999;28;20181;-86
2024/02/25 00:58:46;;;;;;;5.60;4.03;;;;;;;;;;5008977;28;20206;-84
2024/02/25 01:01:51;;;;;;;6.60;4.43;;;;;;;;;;5008378;28;20185;-85
2024/02/25 01:04:55;;;;;;;5.80;4.30;;;;;;;;;;4997646;28;20182;-85
2024/02/25 01:07:59;;;;;;;5.23;4.13;;;;;;;;;;5009601;28;20181;-84
2024/02/25 01:11:06;;;;;;;5.17;4.00;;;;;;;;;;4986737;28;20186;-85
2024/02/25 01:14:15;;;;;;;5.27;3.80;;;;;;;;;;4999154;28;20218;-84
2024/02/25 01:17:20;;;;;;;7.77;4.40;;;;;;;;;;5013404;28;20182;-85
2024/02/25 01:20:24;;;;;;;4.90;3.63;;;;;;;;;;5012182;28;20213;-84
2024/02/25 01:23:28;;;;;;;7.10;4.50;;;;;;;;;;5000030;28;20217;-85
2024/02/25 01:26:40;;;;;;;5.57;4.10;;;;;;;;;;5001295;28;20169;-85
2024/02/25 01:29:44;;;;;;;4.63;3.73;;;;;;;;;;5000330;28;20174;-86
2024/02/25 01:32:48;;;;;;;5.33;3.73;;;;;;;;;;5000603;28;20213;-85
2024/02/25 01:35:52;;;;;;;5.37;3.77;;;;;;;;;;4988365;28;20185;-85
2024/02/25 01:38:59;;;;;;;5.03;3.37;;;;;;;;;;4999789;28;20213;-86
2024/02/25 01:42:03;;;;;;;4.87;3.20;;;;;;;;;;5011856;28;20178;-84
2024/02/25 01:45:08;;;;;;;4.63;3.30;;;;;;;;;;4989053;28;20186;-85
2024/02/25 01:48:15;;;;;;;6.63;3.33;;;;;;;;;;5000032;28;20634;-86
2024/02/25 01:51:20;;;;;;;6.33;3.40;;;;;;;;;;5011072;28;20181;-84
2024/02/25 01:54:25;;;;;;;4.23;3.30;;;;;;;;;;5010893;28;20225;-85
2024/02/25 01:57:30;;;;;;;4.23;3.53;;;;;;;;;;5000178;28;20186;-84
2024/02/25 02:00:35;;;;;;;4.40;3.20;;;;;;;;;;5024362;28;20669;-84
2024/02/25 02:03:43;;;;;;;7.87;4.10;;;;;;;;;;5001040;28;20217;-84
2024/02/25 02:06:47;;;;;;;4.87;3.50;;;;;;;;;;5012197;28;20186;-85
2024/02/25 02:09:52;;;;;;;4.93;3.57;;;;;;;;;;4990222;28;20174;-84
2024/02/25 02:12:56;;;;;;;5.50;3.83;;;;;;;;;;5011971;28;20217;-85
2024/02/25 02:16:00;;;;;;;5.30;4.10;;;;;;;;;;4989088;28;20186;-85
2024/02/25 02:19:06;;;;;;;9.10;4.23;;;;;;;;;;5011418;28;20213;-84
2024/02/25 02:22:10;;;;;;;5.07;4.10;;;;;;;;;;5001260;28;20178;-84
2024/02/25 02:25:16;;;;;;;5.93;3.87;;;;;;;;;;5011859;28;20213;-85
2024/02/25 02:28:20;;;;;;;6.73;3.77;;;;;;;;;;5000288;28;20182;-85
2024/02/25 02:31:24;;;;;;;7.47;3.73;;;;;;;;;;4999365;28;20177;-85
2024/02/25 02:34:29;;;;;;;3.97;3.40;;;;;;;;;;4998709;28;20589;-86
2024/02/25 02:37:33;;;;;;;4.33;3.47;;;;;;;;;;5000003;28;20626;-85
2024/02/25 02:40:37;;;;;;;5.83;3.53;;;;;;;;;;5010812;28;20213;-85
2024/02/25 02:43:41;;;;;;;5.03;3.20;;;;;;;;;;4989121;28;20217;-85
2024/02/25 02:46:46;;;;;;;7.67;3.63;;;;;;;;;;5010979;28;20181;-84
2024/02/25 02:49:50;;;;;;;4.70;3.40;;;;;;;;;;4999266;28;20181;-84
2024/02/25 02:52:54;;;;;;;5.83;3.60;;;;;;;;;;4999318;28;20213;-85
2024/02/25 02:55:59;;;;;;;6.90;3.80;;;;;;;;;;4999303;28;20182;-85
2024/02/25 02:59:03;;;;;;;4.03;3.47;;;;;;;;;;4998626;28;20209;-85
2024/02/25 03:02:07;;;;;;;4.67;3.40;;;;;;;;;;4999999;28;20178;-84
2024/02/25 03:05:11;;;;;;;4.50;3.30;;;;;;;;;;4988451;28;20182;-85
2024/02/25 03:08:15;;;;;;;5.80;3.77;;;;;;;;;;4999130;28;20654;-85
2024/02/25 03:11:21;;;;;;;7.23;3.50;;;;;;;;;;5023268;28;20177;-86
2024/02/25 03:14:26;;;;;;;5.30;3.70;;;;;;;;;;4999496;28;20221;-84
2024/02/25 03:17:29;;;;;;;6.37;3.60;;;;;;;;;;4989670;28;20181;-84
2024/02/25 03:20:34;;;;;;;5.03;3.27;;;;;;;;;;4989267;28;20214;-84
2024/02/25 03:23:39;;;;;;;4.53;3.60;;;;;;;;;;4988312;28;20225;-84
2024/02/25 03:26:47;;;;;;;5.37;3.67;;;;;;;;;;4993924;28;20190;-88
2024/02/25 03:29:52;;;;;;;5.00;3.80;;;;;;;;;;5014412;28;20521;-88
2024/02/25 03:33:00;;;;;;;6.13;3.70;;;;;;;;;;5002742;28;20697;-88
2024/02/25 03:36:05;;;;;;;4.50;3.77;;;;;;;;;;5002326;28;20182;-88
2024/02/25 03:39:10;;;;;;;5.93;3.80;;;;;;;;;;4979700;28;20217;-88
2024/02/25 03:42:13;;;;;;;5.03;4.00;;;;;;;;;;5002717;28;20178;-88
2024/02/25 03:45:18;;;;;;;6.57;4.30;;;;;;;;;;4991051;28;20185;-87
2024/02/25 03:48:22;;;;;;;4.80;3.33;;;;;;;;;;4990929;28;20181;-88
2024/02/25 03:51:26;;;;;;;4.27;3.80;;;;;;;;;;4979918;28;20523;-88
2024/02/25 03:54:30;;;;;;;4.63;3.37;;;;;;;;;;4990530;28;20217;-87
2024/02/25 03:57:34;;;;;;;5.03;3.50;;;;;;;;;;5001972;28;20177;-87
2024/02/25 04:00:38;;;;;;;3.83;2.73;;;;;;;;;;5002279;28;20214;-87
2024/02/25 04:03:43;;;;;;;4.60;3.43;;;;;;;;;;5013507;28;20224;-88
2024/02/25 04:06:47;;;;;;;5.37;3.33;;;;;;;;;;5001715;28;20174;-88
2024/02/25 04:09:51;;;;;;;3.37;2.83;;;;;;;;;;4990404;28;20178;-88
2024/02/25 04:12:56;;;;;;;3.90;3.00;;;;;;;;;;5013958;28;20221;-88
2024/02/25 04:16:00;;;;;;;5.50;2.90;;;;;;;;;;5002231;28;20174;-87
2024/02/25 04:19:04;;;;;;;4.43;2.70;;;;;;;;;;5012968;28;20185;-87
2024/02/25 04:22:08;;;;;;;3.00;2.70;;;;;;;;;;5001838;28;20186;-88
2024/02/25 04:25:12;;;;;;;3.47;2.80;;;;;;;;;;4990200;28;20209;-87
2024/02/25 04:28:17;;;;;;;5.13;2.77;;;;;;;;;;5001481;28;20181;-87
2024/02/25 04:31:21;;;;;;;3.80;3.00;;;;;;;;;;4990381;28;20178;-87
2024/02/25 04:34:25;;;;;;;3.67;2.90;;;;;;;;;;5000782;28;20221;-88
2024/02/25 04:37:30;;;;;;;3.47;2.70;;;;;;;;;;4990131;28;20177;-87
2024/02/25 04:40:34;;;;;;;4.87;2.67;;;;;;;;;;4990155;28;20213;-88
2024/02/25 04:43:39;;;;;;;2.73;2.23;;;;;;;;;;4990070;28;20225;-87
2024/02/25 04:46:43;;;;;;;3.60;2.67;;;;;;;;;;4990262;28;20623;-88
2024/02/25 04:49:48;;;;;;;3.70;2.50;;;;;;;;;;5002105;28;20178;-88
2024/02/25 04:52:52;;;;;;;5.77;2.80;;;;;;;;;;5004653;28;20221;-87
2024/02/25 04:55:56;;;;;;;3.90;2.37;;;;;;;;;;5004781;28;20187;-88
2024/02/25 04:59:00;;;;;;;5.40;2.60;;;;;;;;;;4993194;28;20207;-88
2024/02/25 05:02:05;;;;;;;6.67;2.57;;;;;;;;;;4993374;28;20174;-87
2024/02/25 05:05:10;;;;;;;4.03;2.57;;;;;;;;;;5016904;28;20177;-88
2024/02/25 05:08:14;;;;;;;3.07;2.50;;;;;;;;;;4993014;28;20189;-88
2024/02/25 05:11:18;;;;;;;3.80;2.80;;;;;;;;;;4992659;28;20184;-88
2024/02/25 05:14:22;;;;;;;4.73;2.70;;;;;;;;;;5016274;28;20613;-87
2024/02/25 05:17:27;;;;;;;2.27;2.07;;;;;;;;;;5004527;28;20170;-88
2024/02/25 05:20:31;;;;;;;2.43;2.00;;;;;;;;;;5004568;28;20213;-88
2024/02/25 05:23:35;;;;;;;3.40;2.13;;;;;;;;;;5003994;28;20213;-87
2024/02/25 05:26:39;;;;;;;3.30;2.20;;;;;;;;;;5003543;28;20177;-87
2024/02/25 05:29:43;;;;;;;3.57;2.33;;;;;;;;;;4992424;28;20646;-88
2024/02/25 05:32:48;;;;;;;3.07;2.20;;;;;;;;;;4992933;28;20213;-87
2024/02/25 05:35:53;;;;;;;2.20;2.00;;;;;;;;;;5003923;28;20520;-87
2024/02/25 05:38:57;;;;;;;3.03;2.03;;;;;;;;;;4992638;28;20519;-87
2024/02/25 05:42:02;;;;;;;4.97;2.80;;;;;;;;;;5015556;28;20530;-87
2024/02/25 05:45:06;;;;;;;3.17;2.27;;;;;;;;;;5003632;28;20186;-88
2024/02/25 05:48:11;;;;;;;4.77;2.60;;;;;;;;;;4992712;28;20216;-88
2024/02/25 05:51:15;;;;;;;2.67;2.37;;;;;;;;;;4992191;28;20174;-87
2024/02/25 05:54:19;;;;;;;5.00;2.40;;;;;;;;;;4991813;28;20217;-87
2024/02/25 05:57:23;;;;;;;4.30;2.20;;;;;;;;;;5003933;28;20182;-88
2024/02/25 06:00:27;;;;;;;2.97;2.37;;;;;;;;;;4981007;28;20225;-87
2024/02/25 06:03:32;;;;;;;2.70;2.47;;;;;;;;;;5003070;28;20693;-87
2024/02/25 06:06:36;;;;;;;4.00;2.50;;;;;;;;;;4992332;28;20185;-87
2024/02/25 06:09:40;;;;;;;3.40;2.47;;;;;;;;;;4991745;28;20186;-88
2024/02/25 06:12:44;;;;;;;3.80;2.40;;;;;;;;;;4992304;28;20185;-88
2024/02/25 06:15:48;;;;;;;3.33;2.40;;;;;;;;;;5003237;28;20550;-88
2024/02/25 06:18:53;;;;;;;2.97;2.30;;;;;;;;;;5015586;28;20181;-87
2024/02/25 06:21:57;;;;;;;5.23;2.40;;;;;;;;;;5003153;28;20210;-88
2024/02/25 06:25:05;;;;;;;5.63;3.07;;;;;;;;;;5002853;28;20209;-88
2024/02/25 06:28:09;;;;;;;3.70;2.87;;;;;;;;;;5015062;28;20189;-88
2024/02/25 06:31:14;;;;;;;3.20;2.60;;;;;;;;;;5015160;28;20178;-87
2024/02/25 06:34:18;;;;;;;3.90;2.57;;;;;;;;;;5002798;28;20581;-87
2024/02/25 06:37:22;;;;;;;4.93;2.83;;;;;;;;;;5003078;28;20618;-88
2024/02/25 06:40:27;;;;;;;4.57;3.13;;;;;;;;;;4991386;28;20213;-88
2024/02/25 06:43:31;;;;;;;5.00;3.40;;;;;;;;;;5014842;28;20217;-88
2024/02/25 06:46:39;;;;;;;4.57;2.60;;;;;;;;;;4991700;28;20177;-88
2024/02/25 06:49:43;;;;;;;2.03;1.73;;;;;;;;;;5003657;28;20178;-87
2024/02/25 06:52:47;;;;;;;2.97;2.30;;;;;;;;;;5003302;28;20224;-88
2024/02/25 06:55:52;;;;;;;2.50;1.97;;;;;;;;;;5003174;28;20177;-88
2024/02/25 06:58:56;;;;;;;2.70;2.33;;;;;;;;;;5003418;28;20178;-87
2024/02/25 07:02:00;;;;;;;2.20;2.00;;;;;;;;;;5002824;28;20213;-84
2024/02/25 07:05:04;;;;;;;4.07;2.03;;;;;;;;;;5002042;28;20186;-88
2024/02/25 07:08:08;;;;;;;3.87;2.10;;;;;;;;;;5002002;28;20186;-88
2024/02/25 07:11:19;;;;;;;6.87;2.80;;;;;;;;;;4990658;28;20177;-88
2024/02/25 07:14:24;;;;;;;3.97;2.60;;;;;;;;;;4991075;28;20217;-87
2024/02/25 07:17:28;;;;;;;2.87;2.20;;;;;;;;;;5002060;28;20186;-88
2024/02/25 07:20:33;;;;;;;4.40;2.37;;;;;;;;;;4990671;28;20213;-88
2024/02/25 07:23:43;;;;;;;2.83;2.00;;;;;;;;;;5002276;28;20216;-88
2024/02/25 07:26:47;;;;;;;2.43;1.90;;;;;;;;;;5001687;28;20189;-88
2024/02/25 07:29:51;;;;;;;2.40;2.20;;;;;;;;;;5002047;28;20181;-88
2024/02/25 07:32:56;;;;;;;6.17;2.93;;;;;;;;;;5001774;28;20221;-87
2024/02/25 07:36:00;;;;;;;3.40;2.57;;;;;;;;;;4990986;28;20177;-87
2024/02/25 07:39:05;;;;;;;5.17;3.10;;;;;;;;;;4991492;28;20185;-89
2024/02/25 07:42:09;;;;;;;4.43;2.30;;;;;;;;;;5001238;28;20217;-86
2024/02/25 07:45:13;;;;;;;2.97;2.20;;;;;;;;;;5001683;28;20186;-88
2024/02/25 07:48:18;;;;;;;3.13;2.17;;;;;;;;;;5001015;28;20181;-88
2024/02/25 07:51:23;;;;;;;6.00;2.47;;;;;;;;;;5000917;28;20178;-89
2024/02/25 07:54:27;;;;;;;5.50;3.30;;;;;;;;;;5001175;28;20221;-89
2024/02/25 07:57:33;;;;;;;4.97;3.00;;;;;;;;;;5000674;28;20630;-89
2024/02/25 08:00:37;;;;;;;6.53;4.50;;;;;;;;;;4989065;28;20210;-89
2024/02/25 08:03:41;;;;;;;5.53;3.10;;;;;;;;;;5000019;28;20222;-89
2024/02/25 08:06:45;;;;;;;5.57;4.60;;;;;;;;;;5000664;28;20636;-89
2024/02/25 08:09:51;;;;;;;4.00;3.07;;;;;;;;;;5012398;28;20189;-89
2024/02/25 08:12:57;;;;;;;3.43;2.67;;;;;;;;;;4988927;28;20209;-90
2024/02/25 08:16:02;;;;;;;3.83;2.90;;;;;;;;;;5000239;28;20522;-89
2024/02/25 08:19:06;;;;;;;3.80;2.90;;;;;;;;;;4978216;28;20189;-89
2024/02/25 08:22:10;;;;;;;3.67;2.50;;;;;;;;;;5000091;28;20214;-89
2024/02/25 08:25:14;;;;;;;4.47;2.70;;;;;;;;;;4994515;28;20639;-89
2024/02/25 08:28:20;;;;;;;4.13;2.87;;;;;;;;;;5006549;28;20182;-89
2024/02/25 08:31:28;;;;;;;3.47;2.43;;;;;;;;;;4995292;28;20178;-88
2024/02/25 08:34:32;;;;;;;3.83;2.87;;;;;;;;;;4994912;28;20221;-89
2024/02/25 08:37:39;;;;;;;6.40;4.77;;;;;;;;;;4984207;28;20185;-89
2024/02/25 08:40:43;;;;;;;3.57;3.03;;;;;;;;;;4995206;28;20209;-89
2024/02/25 08:43:47;;;;;;;5.23;3.23;;;;;;;;;;4995294;28;20213;-89
2024/02/25 08:46:51;;;;;;;3.23;2.73;;;;;;;;;;4995486;28;20185;-89
2024/02/25 08:49:57;;;;;;;5.07;2.90;;;;;;;;;;5018274;28;20646;-89
2024/02/25 08:53:03;;;;;;;3.67;2.80;;;;;;;;;;5006219;28;20209;-89
2024/02/25 08:56:09;;;;;;;4.47;3.17;;;;;;;;;;4994980;28;20185;-88
2024/02/25 08:59:16;;;;;;;3.57;2.80;;;;;;;;;;4995012;28;20523;-88
2024/02/25 09:02:20;;;;;;;3.60;2.60;;;;;;;;;;5018149;28;20209;-88
2024/02/25 09:05:24;;;;;;;3.77;3.13;;;;;;;;;;4995289;28;20626;-88
2024/02/25 09:08:28;;;;;;;5.33;3.17;;;;;;;;;;5017945;28;20181;-90
2024/02/25 09:11:32;;;;;;;4.83;3.30;;;;;;;;;;4994900;28;20182;-88
2024/02/25 09:14:36;;;;;;;3.87;2.87;;;;;;;;;;4995214;28;20217;-88
2024/02/25 09:17:40;;;;;;;4.03;2.30;;;;;;;;;;4994722;28;20186;-89
2024/02/25 09:20:44;;;;;;;2.90;2.00;;;;;;;;;;4995781;28;20182;-89
2024/02/25 09:23:49;;;;;;;2.27;1.80;;;;;;;;;;5007792;28;20225;-88
2024/02/25 09:26:53;;;;;;;2.70;2.03;;;;;;;;;;5007009;28;20530;-82
2024/02/25 09:29:57;;;;;;;2.37;1.97;;;;;;;;;;4995642;28;20630;-86
2024/02/25 09:33:03;;;;;;;2.80;1.90;;;;;;;;;;4996177;28;20220;-85
2024/02/25 09:36:06;;;;;;;2.70;2.00;;;;;;;;;;4992746;28;20650;-85
2024/02/25 09:39:12;;;;;;;2.77;1.90;;;;;;;;;;5004607;28;20194;-84
2024/02/25 09:42:21;;;;;;;2.77;1.80;;;;;;;;;;4982975;28;20214;-86
2024/02/25 09:45:32;;;;;;;2.43;1.93;;;;;;;;;;5005472;28;20185;-86
2024/02/25 09:48:36;;;;;;;4.80;1.90;;;;;;;;;;5004916;28;20634;-86
2024/02/25 09:51:41;;;;;;;3.10;1.80;;;;;;;;;;5017152;28;20182;-86
2024/02/25 09:54:48;;;;;;;2.63;2.00;;;;;;;;;;5004116;28;20213;-87
2024/02/25 09:57:52;;;;;;;2.53;1.70;;;;;;;;;;4992807;28;20182;-87
2024/02/25 10:00:57;;;;;;;2.97;1.93;;;;;;;;;;4992985;28;20177;-87
2024/02/25 10:04:01;;;;;;;1.43;1.33;;;;;;;;;;4992627;28;20221;-86
2024/02/25 10:07:05;;;;;;;2.50;1.80;;;;;;;;;;4980949;28;20190;-85
2024/02/25 10:10:13;;;;;;;2.03;1.63;;;;;;;;;;4981630;28;20545;-85
2024/02/25 10:13:17;;;;;;;4.33;1.80;;;;;;;;;;5003608;28;20213;-85
2024/02/25 10:16:22;;;;;;;2.70;1.77;;;;;;;;;;4992515;28;20182;-84
2024/02/25 10:19:26;;;;;;;1.80;1.40;;;;;;;;;;5003701;28;20524;-83
2024/02/25 10:22:30;;;;;;;2.83;1.50;;;;;;;;;;5014983;28;20559;-85
2024/02/25 10:25:36;;;;;;;1.90;1.40;;;;;;;;;;4980422;28;20205;-84
2024/02/25 10:28:43;;;;;;;2.67;1.47;;;;;;;;;;5015180;28;20178;-84
2024/02/25 10:31:57;;;;;;;0.87;0.70;;;;;;;;;;5002942;28;20182;-84
2024/02/25 10:35:01;;;;;;;1.40;0.80;;;;;;;;;;5003552;28;20182;-84
2024/02/25 10:38:09;;;;;;;0.93;0.80;;;;;;;;;;5015324;28;20182;-84
2024/02/25 10:41:15;;;;;;;2.20;0.83;;;;;;;;;;5003040;28;20218;-84
2024/02/25 10:44:26;;;;;;;2.00;0.80;;;;;;;;;;5015337;28;20693;-85
2024/02/25 10:47:34;;;;;;;1.87;0.90;;;;;;;;;;5001425;28;20535;-84
2024/02/25 10:50:39;;;;;;;0.93;0.67;;;;;;;;;;5002697;28;20182;-85
2024/02/25 10:53:43;;;;;;;1.33;0.70;;;;;;;;;;4991846;28;20213;-84
2024/02/25 10:56:49;;;;;;;1.13;0.90;;;;;;;;;;5015035;28;20177;-85
2024/02/25 10:59:53;;;;;;;0.90;0.70;;;;;;;;;;5002807;28;20182;-84
2024/02/25 11:02:59;;;;;;;0.90;0.60;;;;;;;;;;5014846;28;20229;-84
2024/02/25 11:06:07;;;;;;;0.80;0.60;;;;;;;;;;5002402;28;20182;-84
2024/02/25 11:09:12;;;;;;;0.67;0.57;;;;;;;;;;5014342;28;20182;-84
2024/02/25 11:12:21;;;;;;;0.70;0.60;;;;;;;;;;5014813;28;20178;-84
2024/02/25 11:15:28;;;;;;;1.70;0.80;;;;;;;;;;5002382;28;20178;-83
2024/02/25 11:18:32;;;;;;;0.80;0.60;;;;;;;;;;5002213;28;20189;-83
2024/02/25 11:21:37;;;;;;;0.80;0.57;;;;;;;;;;4992248;28;20213;-83
2024/02/25 11:24:49;;;;;;;0.60;0.60;;;;;;;;;;4989971;28;20229;-84
2024/02/25 11:28:06;;;;;;;1.47;0.60;;;;;;;;;;4991438;28;20178;-84
2024/02/25 11:31:49;;;;;;;2.13;0.47;;;;;;;;;;4990859;28;20178;-83
2024/02/25 11:34:58;;;;;;;1.50;0.70;;;;;;;;;;5013882;28;20186;-84
2024/02/25 11:38:03;;;;;;;0.83;0.60;;;;;;;;;;5013802;28;20178;-84
2024/02/25 11:41:08;;;;;;;0.63;0.40;;;;;;;;;;4993136;28;20174;-83
2024/02/25 11:44:13;;;;;;;1.43;0.60;;;;;;;;;;5003841;28;20213;-83
2024/02/25 11:47:18;;;;;;;1.60;0.40;;;;;;;;;;5019862;28;20178;-82
2024/02/25 11:50:26;;;;;;;0.67;0.37;;;;;;;;;;5003808;28;20650;-84
2024/02/25 11:53:31;;;;;;;0.83;0.40;;;;;;;;;;4990887;28;20205;-83
2024/02/25 11:56:36;;;;;;;1.47;0.70;;;;;;;;;;4990475;28;20189;-82
2024/02/25 11:59:40;;;;;;;2.23;1.20;;;;;;;;;;5000932;28;20181;-83
2024/02/25 12:02:44;;;;;;;0.50;0.50;;;;;;;;;;5006824;28;20205;-83
2024/02/25 12:05:50;;;;;;;1.30;0.50;;;;;;;;;;4998712;28;20635;-83
2024/02/25 12:08:54;;;;;;;0.60;0.50;;;;;;;;;;5021400;28;20177;-85
2024/02/25 12:11:59;;;;;;;1.17;0.50;;;;;;;;;;4988204;28;20178;-88
2024/02/25 12:15:04;;;;;;;0.60;0.40;;;;;;;;;;4998912;28;20186;-85
2024/02/25 12:18:10;;;;;;;4.83;0.63;;;;;;;;;;4998912;28;20181;-85
2024/02/25 12:21:14;;;;;;;0.57;0.43;;;;;;;;;;5021920;28;20635;-85
2024/02/25 12:24:18;;;;;;;1.17;0.50;;;;;;;;;;4997455;28;20217;-85
2024/02/25 12:27:26;;;;;;;1.03;0.70;;;;;;;;;;5008941;28;20189;-85
2024/02/25 12:30:35;;;;;;;1.73;1.10;;;;;;;;;;4986453;28;20185;-87
2024/02/25 12:33:39;;;;;;;4.73;0.60;;;;;;;;;;5008599;28;20221;-89
2024/02/25 12:36:45;;;;;;;1.07;0.43;;;;;;;;;;5008504;28;20174;-90
2024/02/25 12:39:50;;;;;;;1.23;0.60;;;;;;;;;;5007579;28;20181;-89
2024/02/25 12:42:57;;;;;;;0.67;0.43;;;;;;;;;;4996612;28;20237;-89
2024/02/25 12:46:03;;;;;;;0.83;0.60;;;;;;;;;;5007886;28;20177;-90
2024/02/25 12:49:14;;;;;;;0.80;0.50;;;;;;;;;;4996398;28;20177;-88
2024/02/25 12:52:21;;;;;;;0.53;0.47;;;;;;;;;;4995548;28;20174;-89
2024/02/25 12:55:27;;;;;;;0.60;0.50;;;;;;;;;;4995692;28;20181;-89
2024/02/25 12:58:33;;;;;;;0.67;0.40;;;;;;;;;;5001878;28;20185;-86
2024/02/25 13:01:37;;;;;;;1.50;0.40;;;;;;;;;;4993445;28;20181;-86
2024/02/25 13:04:41;;;;;;;0.83;0.30;;;;;;;;;;4994529;28;20217;-90
2024/02/25 13:07:45;;;;;;;1.50;0.40;;;;;;;;;;4996170;28;20181;-90
2024/02/25 13:10:50;;;;;;;0.40;0.37;;;;;;;;;;5008107;28;20186;-90
2024/02/25 13:13:54;;;;;;;0.60;0.33;;;;;;;;;;4998368;28;20213;-90
2024/02/25 13:16:59;;;;;;;0.70;0.40;;;;;;;;;;5009009;28;20186;-90
2024/02/25 13:20:04;;;;;;;0.60;0.40;;;;;;;;;;4997792;28;20190;-86
2024/02/25 13:23:08;;;;;;;1.37;0.50;;;;;;;;;;5008043;28;20230;-86
2024/02/25 13:26:12;;;;;;;0.80;0.50;;;;;;;;;;4986613;28;20208;-86
2024/02/25 13:29:17;;;;;;;1.57;0.63;;;;;;;;;;4997598;28;20185;-86
2024/02/25 13:32:21;;;;;;;2.67;0.63;;;;;;;;;;4987361;28;20174;-88
2024/02/25 13:35:25;;;;;;;0.80;0.70;;;;;;;;;;5006959;28;20181;-88
2024/02/25 13:38:29;;;;;;;1.00;0.67;;;;;;;;;;4995433;28;20186;-88
2024/02/25 13:41:33;;;;;;;6.97;0.80;;;;;;;;;;5006475;28;20189;-89
2024/02/25 13:44:37;;;;;;;3.20;0.90;;;;;;;;;;4994424;28;20205;-86
2024/02/25 13:47:41;;;;;;;1.43;0.80;;;;;;;;;;5007089;28;20177;-88
2024/02/25 13:50:45;;;;;;;4.30;2.37;;;;;;;;;;5005801;28;20173;-88
2024/02/25 13:53:50;;;;;;;2.27;0.90;;;;;;;;;;4996881;28;20213;-86
2024/02/25 13:56:55;;;;;;;3.07;2.00;;;;;;;;;;5029526;28;20182;-85
2024/02/25 14:00:00;;;;;;;1.73;0.73;;;;;;;;;;4997129;28;20178;-85
2024/02/25 14:03:08;;;;;;;0.70;0.60;;;;;;;;;;4997906;28;20233;-85
2024/02/25 14:06:14;;;;;;;2.83;0.87;;;;;;;;;;5009492;28;20165;-85
2024/02/25 14:09:19;;;;;;;3.80;1.23;;;;;;;;;;4997517;28;20216;-86
2024/02/25 14:12:23;;;;;;;4.00;1.33;;;;;;;;;;4990501;28;20182;-88
2024/02/25 14:15:27;;;;;;;1.30;0.60;;;;;;;;;;4983056;28;20181;-88
2024/02/25 14:18:32;;;;;;;0.50;0.50;;;;;;;;;;4993792;28;20185;-90
2024/02/25 14:21:36;;;;;;;1.00;0.63;;;;;;;;;;4982817;28;20181;-90
2024/02/25 14:24:41;;;;;;;3.37;0.70;;;;;;;;;;5020010;28;20217;-89
2024/02/25 14:27:45;;;;;;;1.33;0.60;;;;;;;;;;4993080;28;20524;-89
2024/02/25 14:30:51;;;;;;;2.93;1.80;;;;;;;;;;4981854;28;20182;-89
2024/02/25 14:33:55;;;;;;;1.30;0.73;;;;;;;;;;5015524;28;20216;-89
2024/02/25 14:36:59;;;;;;;1.80;1.00;;;;;;;;;;5016237;28;20181;-87
2024/02/25 14:40:04;;;;;;;0.70;0.70;;;;;;;;;;4992594;28;20189;-86
2024/02/25 14:56:32;;;;;;;1.40;0.80;;;;;;;;;;5053008;28;20149;-85
2024/02/25 14:59:38;;;;;;;1.30;0.80;;;;;;;;;;5016399;28;20186;-87
2024/02/25 15:02:45;;;;;;;1.23;0.90;;;;;;;;;;4996515;28;20205;-85
2024/02/25 15:05:50;;;;;;;1.87;1.00;;;;;;;;;;5008548;28;20574;-84
2024/02/25 15:08:55;;;;;;;1.13;0.70;;;;;;;;;;4996553;28;20182;-85
2024/02/25 15:11:59;;;;;;;2.90;1.00;;;;;;;;;;4994293;28;20245;-85
2024/02/25 15:15:05;;;;;;;2.27;0.80;;;;;;;;;;4991744;28;20531;-86
2024/02/25 15:18:10;;;;;;;1.73;0.90;;;;;;;;;;5004013;28;20182;-86
2024/02/25 15:21:15;;;;;;;2.60;0.83;;;;;;;;;;4987201;28;20181;-86
2024/02/25 15:24:18;;;;;;;1.00;0.73;;;;;;;;;;5018800;28;20233;-86
2024/02/25 15:27:23;;;;;;;1.53;0.90;;;;;;;;;;5025473;22;20230;-86
2024/02/25 15:30:27;;;;;;;1.10;0.83;;;;;;;;;;5048813;28;20182;-87
2024/02/25 15:33:32;;;;;;;0.63;0.57;;;;;;;;;;5048171;28;20625;-86
2024/02/25 15:36:36;;;;;;;0.73;0.63;;;;;;;;;;4979043;28;20642;-87
2024/02/25 15:39:48;;;;;;;1.30;0.60;;;;;;;;;;5001802;28;20189;-87
2024/02/25 15:42:54;;;;;;;1.80;0.77;;;;;;;;;;5001367;28;20213;-87
2024/02/25 15:46:00;;;;;;;1.73;0.73;;;;;;;;;;4990733;28;20542;-88
2024/02/25 15:49:04;;;;;;;0.80;0.50;;;;;;;;;;4990543;28;20189;-86
2024/02/25 15:52:08;;;;;;;0.73;0.47;;;;;;;;;;5013130;28;20181;-86
2024/02/25 15:55:13;;;;;;;1.17;0.77;;;;;;;;;;5001893;28;20177;-85
2024/02/25 15:58:18;;;;;;;0.90;0.53;;;;;;;;;;5001290;28;20217;-85
2024/02/25 16:01:23;;;;;;;0.50;0.47;;;;;;;;;;5002152;28;20186;-87
2024/02/25 16:04:30;;;;;;;0.67;0.50;;;;;;;;;;5003152;28;20205;-87
2024/02/25 16:07:35;;;;;;;0.67;0.60;;;;;;;;;;4990576;28;20217;-88
2024/02/25 16:10:52;;;;;;;0.97;0.70;;;;;;;;;;4992637;28;20189;-88
2024/02/25 16:14:01;;;;;;;1.03;0.50;;;;;;;;;;5001509;28;20174;-88
2024/02/25 16:17:09;;;;;;;1.13;0.70;;;;;;;;;;5001408;28;20229;-88
2024/02/25 16:20:13;;;;;;;1.30;0.80;;;;;;;;;;5001025;28;20189;-87
2024/02/25 16:23:18;;;;;;;0.70;0.60;;;;;;;;;;4989602;28;20213;-87
2024/02/25 16:26:22;;;;;;;1.37;0.90;;;;;;;;;;4978763;28;20181;-88
2024/02/25 16:29:27;;;;;;;0.70;0.70;;;;;;;;;;4989969;28;20189;-88
2024/02/25 16:32:33;;;;;;;1.70;0.83;;;;;;;;;;5001364;28;20185;-87
2024/02/25 16:35:39;;;;;;;5.30;1.40;;;;;;;;;;4979131;28;20178;-88
2024/02/25 16:38:44;;;;;;;1.93;1.50;;;;;;;;;;4989503;28;20221;-86
2024/02/25 16:41:50;;;;;;;1.80;1.00;;;;;;;;;;4989858;28;20173;-86
2024/02/25 16:44:54;;;;;;;0.70;0.63;;;;;;;;;;5015164;28;20206;-85
2024/02/25 16:48:01;;;;;;;1.10;0.80;;;;;;;;;;5015588;28;20217;-86
2024/02/25 16:51:05;;;;;;;2.33;1.10;;;;;;;;;;5003529;28;20177;-88
2024/02/25 16:54:09;;;;;;;3.37;1.20;;;;;;;;;;4981921;28;20511;-87
2024/02/25 16:57:14;;;;;;;3.37;1.00;;;;;;;;;;5004424;28;20217;-87
2024/02/25 17:00:20;;;;;;;2.40;0.97;;;;;;;;;;4982077;28;20637;-88
2024/02/25 17:03:24;;;;;;;1.70;1.20;;;;;;;;;;4993402;28;20206;-88
2024/02/25 17:06:32;;;;;;;3.43;0.80;;;;;;;;;;5003942;28;20189;-88
2024/02/25 17:09:37;;;;;;;1.40;0.90;;;;;;;;;;4993295;28;20194;-88
2024/02/25 17:12:41;;;;;;;1.00;0.80;;;;;;;;;;4992642;28;20185;-88
2024/02/25 17:15:45;;;;;;;0.80;0.80;;;;;;;;;;4993057;28;20177;-87
2024/02/25 17:18:50;;;;;;;0.90;0.70;;;;;;;;;;5004090;28;20182;-87
2024/02/25 17:21:54;;;;;;;1.27;0.80;;;;;;;;;;4992563;28;20568;-87
2024/02/25 17:24:59;;;;;;;2.57;0.90;;;;;;;;;;5015596;28;20217;-87
2024/02/25 17:28:03;;;;;;;3.73;1.00;;;;;;;;;;4992090;28;20225;-88
2024/02/25 17:31:09;;;;;;;2.77;1.20;;;;;;;;;;4992608;28;20177;-88
2024/02/25 17:34:13;;;;;;;2.00;0.90;;;;;;;;;;4981771;28;20182;-88
2024/02/25 17:37:17;;;;;;;2.73;0.90;;;;;;;;;;4992307;28;20213;-88
2024/02/25 17:40:21;;;;;;;1.63;0.90;;;;;;;;;;5003786;28;20181;-87
2024/02/25 17:43:27;;;;;;;1.90;1.00;;;;;;;;;;4993078;28;20712;-87
2024/02/25 17:46:32;;;;;;;2.10;1.30;;;;;;;;;;5003308;28;20185;-87
2024/02/25 17:49:35;;;;;;;2.10;1.53;;;;;;;;;;5004763;28;20189;-88
2024/02/25 17:52:40;;;;;;;1.50;1.40;;;;;;;;;;4992842;28;20186;-88
2024/02/25 17:55:44;;;;;;;3.43;1.67;;;;;;;;;;5003833;28;20177;-88
2024/02/25 17:58:49;;;;;;;3.87;1.50;;;;;;;;;;5015870;28;20202;-88
2024/02/25 18:01:54;;;;;;;2.10;1.57;;;;;;;;;;4992570;28;20182;-87
2024/02/25 18:04:58;;;;;;;5.57;2.10;;;;;;;;;;4992335;28;20209;-87
2024/02/25 18:08:03;;;;;;;3.63;1.70;;;;;;;;;;4992276;28;20221;-87
2024/02/25 18:11:07;;;;;;;2.83;1.77;;;;;;;;;;4992569;28;20182;-87
2024/02/25 18:14:12;;;;;;;2.73;1.70;;;;;;;;;;5004122;28;20185;-87
2024/02/25 18:17:17;;;;;;;2.17;1.97;;;;;;;;;;5015171;28;20221;-87
2024/02/25 18:20:21;;;;;;;2.73;1.87;;;;;;;;;;5003312;28;20614;-87
2024/02/25 18:23:29;;;;;;;2.73;2.30;;;;;;;;;;4980698;28;20189;-88
2024/02/25 18:26:33;;;;;;;3.43;2.30;;;;;;;;;;4991284;28;20201;-87
2024/02/25 18:29:37;;;;;;;4.83;2.43;;;;;;;;;;4992169;28;20177;-88
2024/02/25 18:32:41;;;;;;;3.47;2.60;;;;;;;;;;5014431;28;20181;-87
2024/02/25 18:35:46;;;;;;;2.87;2.20;;;;;;;;;;5003177;28;20626;-87
2024/02/25 18:38:50;;;;;;;3.73;2.77;;;;;;;;;;5002605;28;20186;-87
2024/02/25 18:41:54;;;;;;;5.20;2.50;;;;;;;;;;4980195;28;20181;-87